Terminal Aerodrome Forecast
Issued by NWS Boston, MA

Home | Current Version | Previous Version | Text Only | Print | Product List | Glossary On
Versions: 1 2 3 4 5 6 7 8 9 10 11 12 13 14 15 16 17 18 19 20 21 22 23 24 25 26 27 28 29
000
FTUS41 KBOX 010548 RRA
TAFORH
TAF
KORH 010548Z 0106/0206 15004KT P6SM BKN050
     FM011100 17005KT 6SM -SHRA BR OVC010
     FM011300 18005KT P6SM -SHRA OVC070
     FM012200 20006KT P6SM BKN250
     FM020400 26006KT P6SM BKN250=

USA.gov is the U.S. government's official web portal to all federal, state and local government web resources and services.